sensor_id;sensor_type;location;lat;lon;timestamp;pressure;altitude;pressure_sealevel;temperature;humidity
13954;BME280;7049;49.444;8.522;2023-06-22T00:03:03;-11160.47;;;-3.47;80.48
13954;BME280;7049;49.444;8.522;2023-06-22T00:08:05;-11160.47;;;-3.47;80.87
13954;BME280;7049;49.444;8.522;2023-06-22T00:13:08;-11160.47;;;-3.47;81.46
13954;BME280;7049;49.444;8.522;2023-06-22T00:18:10;-11160.47;;;-3.47;81.81
13954;BME280;7049;49.444;8.522;2023-06-22T00:23:13;-11160.47;;;-3.47;82.74
13954;BME280;7049;49.444;8.522;2023-06-22T00:28:17;-11160.47;;;-3.47;83.04
13954;BME280;7049;49.444;8.522;2023-06-22T00:33:18;-11160.47;;;-3.47;82.61
13954;BME280;7049;49.444;8.522;2023-06-22T00:38:20;-11160.47;;;-3.47;82.73
13954;BME280;7049;49.444;8.522;2023-06-22T00:43:23;-11160.47;;;-3.47;79.26
13954;BME280;7049;49.444;8.522;2023-06-22T00:48:25;-11160.47;;;-3.47;79.07
13954;BME280;7049;49.444;8.522;2023-06-22T00:53:27;-11160.47;;;-3.47;82.35
13954;BME280;7049;49.444;8.522;2023-06-22T00:58:32;-11160.47;;;-3.47;87.08
13954;BME280;7049;49.444;8.522;2023-06-22T01:03:34;-11160.47;;;-3.47;89.16
13954;BME280;7049;49.444;8.522;2023-06-22T01:08:40;-11160.47;;;-3.47;88.99
13954;BME280;7049;49.444;8.522;2023-06-22T01:13:50;-11160.47;;;-3.47;90.34
13954;BME280;7049;49.444;8.522;2023-06-22T01:18:59;-11160.47;;;-3.47;92.11
13954;BME280;7049;49.444;8.522;2023-06-22T01:24:13;-11160.47;;;-3.47;93.51
13954;BME280;7049;49.444;8.522;2023-06-22T01:29:17;-11160.47;;;-3.47;93.45
13954;BME280;7049;49.444;8.522;2023-06-22T01:34:20;-11160.47;;;-3.47;94.25
13954;BME280;7049;49.444;8.522;2023-06-22T01:39:22;-11160.47;;;-3.47;95.07
13954;BME280;7049;49.444;8.522;2023-06-22T01:44:26;-11160.47;;;-3.47;95.26
13954;BME280;7049;49.444;8.522;2023-06-22T01:49:28;-11160.47;;;-3.47;95.49
13954;BME280;7049;49.444;8.522;2023-06-22T01:54:29;-11160.47;;;-3.47;95.62
13954;BME280;7049;49.444;8.522;2023-06-22T01:59:34;-11160.47;;;-3.47;96.06
13954;BME280;7049;49.444;8.522;2023-06-22T02:04:44;-11160.47;;;-3.47;95.90
13954;BME280;7049;49.444;8.522;2023-06-22T02:09:48;-11160.47;;;-3.47;95.99
13954;BME280;7049;49.444;8.522;2023-06-22T02:14:53;-11160.47;;;-3.47;96.36
13954;BME280;7049;49.444;8.522;2023-06-22T02:19:55;-11160.47;;;-3.47;96.69
13954;BME280;7049;49.444;8.522;2023-06-22T02:24:56;-11160.47;;;-3.47;97.01
13954;BME280;7049;49.444;8.522;2023-06-22T02:30:01;-11160.47;;;-3.47;97.48
13954;BME280;7049;49.444;8.522;2023-06-22T02:35:04;-11160.47;;;-3.47;97.71
13954;BME280;7049;49.444;8.522;2023-06-22T02:40:07;-11160.47;;;-3.47;97.91
13954;BME280;7049;49.444;8.522;2023-06-22T02:45:10;-11160.47;;;-3.47;98.32
13954;BME280;7049;49.444;8.522;2023-06-22T02:50:12;-11160.47;;;-3.47;98.49
13954;BME280;7049;49.444;8.522;2023-06-22T02:55:13;-11160.47;;;-3.47;98.46
13954;BME280;7049;49.444;8.522;2023-06-22T03:00:17;-11160.47;;;-3.47;98.32
13954;BME280;7049;49.444;8.522;2023-06-22T03:05:18;-11160.47;;;-3.47;98.35
13954;BME280;7049;49.444;8.522;2023-06-22T03:10:20;-11160.47;;;-3.47;98.08
13954;BME280;7049;49.444;8.522;2023-06-22T03:15:23;-11160.47;;;-3.47;97.76
13954;BME280;7049;49.444;8.522;2023-06-22T03:20:25;-11160.47;;;-3.47;97.70
13954;BME280;7049;49.444;8.522;2023-06-22T03:25:33;-11160.47;;;-3.47;97.70
13954;BME280;7049;49.444;8.522;2023-06-22T03:30:38;-11160.47;;;-3.47;97.76
13954;BME280;7049;49.444;8.522;2023-06-22T03:35:40;-11160.47;;;-3.47;97.98
13954;BME280;7049;49.444;8.522;2023-06-22T03:40:42;-11160.47;;;-3.47;98.11
13954;BME280;7049;49.444;8.522;2023-06-22T03:45:45;-11160.47;;;-3.47;98.03
13954;BME280;7049;49.444;8.522;2023-06-22T03:50:46;-11160.47;;;-3.47;98.24
13954;BME280;7049;49.444;8.522;2023-06-22T03:55:48;-11160.47;;;-3.47;98.38
13954;BME280;7049;49.444;8.522;2023-06-22T04:00:52;-11160.47;;;-3.47;98.41
13954;BME280;7049;49.444;8.522;2023-06-22T04:05:54;-11160.47;;;-3.47;98.51
13954;BME280;7049;49.444;8.522;2023-06-22T04:10:55;-11160.47;;;-3.47;98.45
13954;BME280;7049;49.444;8.522;2023-06-22T04:16:05;-11160.47;;;-3.47;98.39
13954;BME280;7049;49.444;8.522;2023-06-22T04:21:17;-11160.47;;;-3.47;98.78
13954;BME280;7049;49.444;8.522;2023-06-22T04:26:19;-11160.47;;;-3.47;99.13
13954;BME280;7049;49.444;8.522;2023-06-22T04:31:25;-11160.47;;;-3.47;99.34
13954;BME280;7049;49.444;8.522;2023-06-22T04:36:36;-11160.47;;;-3.47;99.38
13954;BME280;7049;49.444;8.522;2023-06-22T04:41:39;-11160.47;;;-3.47;99.63
13954;BME280;7049;49.444;8.522;2023-06-22T04:46:45;-11160.47;;;-3.47;99.76
13954;BME280;7049;49.444;8.522;2023-06-22T04:51:53;-11160.47;;;-3.47;100.00
13954;BME280;7049;49.444;8.522;2023-06-22T04:56:55;-11160.47;;;-3.47;100.00
13954;BME280;7049;49.444;8.522;2023-06-22T05:02:00;-11160.47;;;-3.47;100.00
13954;BME280;7049;49.444;8.522;2023-06-22T05:07:04;-11160.47;;;-3.47;99.60
13954;BME280;7049;49.444;8.522;2023-06-22T05:12:07;-11160.47;;;-3.47;99.39
13954;BME280;7049;49.444;8.522;2023-06-22T05:17:10;-11160.47;;;-3.47;98.72
13954;BME280;7049;49.444;8.522;2023-06-22T05:22:14;-11160.47;;;-3.47;98.19
13954;BME280;7049;49.444;8.522;2023-06-22T05:27:15;-11160.47;;;-3.47;98.00
13954;BME280;7049;49.444;8.522;2023-06-22T05:32:18;-11160.47;;;-3.47;97.56
13954;BME280;7049;49.444;8.522;2023-06-22T05:37:20;-11160.47;;;-3.47;97.22
13954;BME280;7049;49.444;8.522;2023-06-22T05:42:22;-11160.47;;;-3.47;96.63
13954;BME280;7049;49.444;8.522;2023-06-22T05:47:27;-11160.47;;;-3.47;96.11
13954;BME280;7049;49.444;8.522;2023-06-22T05:52:29;-11160.47;;;-3.47;96.17
13954;BME280;7049;49.444;8.522;2023-06-22T05:57:30;-11160.47;;;-3.47;95.68
13954;BME280;7049;49.444;8.522;2023-06-22T06:02:33;-11160.47;;;-3.47;95.15
13954;BME280;7049;49.444;8.522;2023-06-22T06:07:36;-11160.47;;;-3.47;94.66
13954;BME280;7049;49.444;8.522;2023-06-22T06:12:37;-11160.47;;;-3.47;93.06
13954;BME280;7049;49.444;8.522;2023-06-22T06:17:46;-11160.47;;;-3.47;92.76
13954;BME280;7049;49.444;8.522;2023-06-22T06:22:48;-11160.47;;;-3.47;91.14
13954;BME280;7049;49.444;8.522;2023-06-22T06:27:51;-11160.47;;;-3.47;90.36
13954;BME280;7049;49.444;8.522;2023-06-22T06:32:56;-11160.47;;;-3.47;89.26
13954;BME280;7049;49.444;8.522;2023-06-22T06:37:57;-11160.47;;;-3.47;88.19
13954;BME280;7049;49.444;8.522;2023-06-22T06:42:59;-11160.47;;;-3.47;86.53
13954;BME280;7049;49.444;8.522;2023-06-22T06:48:02;-11160.47;;;-3.47;81.16
13954;BME280;7049;49.444;8.522;2023-06-22T06:53:03;-11160.47;;;-3.47;75.63
13954;BME280;7049;49.444;8.522;2023-06-22T06:58:05;-11160.47;;;-3.47;77.82
13954;BME280;7049;49.444;8.522;2023-06-22T07:03:09;-11160.47;;;-3.47;73.06
13954;BME280;7049;49.444;8.522;2023-06-22T07:08:11;-11160.47;;;-3.47;73.22
13954;BME280;7049;49.444;8.522;2023-06-22T07:13:12;-11160.47;;;-3.47;71.09
13954;BME280;7049;49.444;8.522;2023-06-22T07:18:15;-11160.47;;;-3.47;71.12
13954;BME280;7049;49.444;8.522;2023-06-22T07:23:17;-11160.47;;;-3.47;70.30
13954;BME280;7049;49.444;8.522;2023-06-22T07:28:18;-11160.47;;;-3.47;66.50
13954;BME280;7049;49.444;8.522;2023-06-22T07:33:21;-11160.47;;;-3.47;63.59
13954;BME280;7049;49.444;8.522;2023-06-22T07:38:22;-11160.47;;;-3.47;65.28
13954;BME280;7049;49.444;8.522;2023-06-22T07:43:24;-11160.47;;;-3.47;60.62
13954;BME280;7049;49.444;8.522;2023-06-22T07:48:27;-11160.47;;;-3.47;57.10
13954;BME280;7049;49.444;8.522;2023-06-22T07:53:28;-11160.47;;;-3.47;55.83
13954;BME280;7049;49.444;8.522;2023-06-22T07:58:30;-11160.47;;;-3.47;57.10
13954;BME280;7049;49.444;8.522;2023-06-22T08:03:32;-11160.47;;;-3.47;53.16
13954;BME280;7049;49.444;8.522;2023-06-22T08:08:34;-11160.47;;;-3.47;56.30
13954;BME280;7049;49.444;8.522;2023-06-22T08:13:35;-11160.47;;;-3.47;55.10
13954;BME280;7049;49.444;8.522;2023-06-22T08:18:38;-11160.47;;;-3.47;52.37
13954;BME280;7049;49.444;8.522;2023-06-22T08:23:40;-11160.47;;;-3.47;52.29
13954;BME280;7049;49.444;8.522;2023-06-22T08:28:41;-11160.47;;;-3.47;48.98
13954;BME280;7049;49.444;8.522;2023-06-22T08:33:44;-11160.47;;;-3.47;48.05
13954;BME280;7049;49.444;8.522;2023-06-22T08:38:46;-11160.47;;;-3.47;52.47
13954;BME280;7049;49.444;8.522;2023-06-22T08:43:51;-11160.47;;;-3.47;50.26
13954;BME280;7049;49.444;8.522;2023-06-22T08:48:54;-11160.47;;;-3.47;48.52
13954;BME280;7049;49.444;8.522;2023-06-22T08:53:55;-11160.47;;;-3.47;46.41
13954;BME280;7049;49.444;8.522;2023-06-22T08:58:59;-11160.47;;;-3.47;44.88
13954;BME280;7049;49.444;8.522;2023-06-22T09:04:02;-11160.47;;;-3.47;44.06
13954;BME280;7049;49.444;8.522;2023-06-22T09:09:05;-11160.47;;;-3.47;42.41
13954;BME280;7049;49.444;8.522;2023-06-22T09:14:07;-11160.47;;;-3.47;40.09
13954;BME280;7049;49.444;8.522;2023-06-22T09:19:10;-11160.47;;;-3.47;39.06
13954;BME280;7049;49.444;8.522;2023-06-22T09:24:11;-11160.47;;;-3.47;39.22
13954;BME280;7049;49.444;8.522;2023-06-22T09:29:13;-11160.47;;;-3.47;38.93
13954;BME280;7049;49.444;8.522;2023-06-22T09:34:18;-11160.47;;;-3.47;38.77
13954;BME280;7049;49.444;8.522;2023-06-22T09:39:20;-11160.47;;;-3.47;37.25
13954;BME280;7049;49.444;8.522;2023-06-22T09:44:22;-11160.47;;;-3.47;38.80
13954;BME280;7049;49.444;8.522;2023-06-22T09:49:24;-11160.47;;;-3.47;37.53
13954;BME280;7049;49.444;8.522;2023-06-22T09:54:26;-11160.47;;;-3.47;37.55
13954;BME280;7049;49.444;8.522;2023-06-22T09:59:27;-11160.47;;;-3.47;37.26
13954;BME280;7049;49.444;8.522;2023-06-22T10:04:32;-11160.47;;;-3.47;36.66
13954;BME280;7049;49.444;8.522;2023-06-22T10:09:35;-11160.47;;;-3.47;38.47
13954;BME280;7049;49.444;8.522;2023-06-22T10:14:58;-11160.47;;;-3.47;38.91
13954;BME280;7049;49.444;8.522;2023-06-22T10:20:15;-11160.47;;;-3.47;38.36
13954;BME280;7049;49.444;8.522;2023-06-22T10:25:26;-11160.47;;;-3.47;38.47
13954;BME280;7049;49.444;8.522;2023-06-22T10:30:28;-11160.47;;;-3.47;36.57
13954;BME280;7049;49.444;8.522;2023-06-22T10:35:31;-11160.47;;;-3.47;36.68
13954;BME280;7049;49.444;8.522;2023-06-22T10:40:32;-11160.47;;;-3.47;36.98
13954;BME280;7049;49.444;8.522;2023-06-22T10:45:34;-11160.47;;;-3.47;37.58
13954;BME280;7049;49.444;8.522;2023-06-22T10:50:37;-11160.47;;;-3.47;37.84
13954;BME280;7049;49.444;8.522;2023-06-22T10:55:38;-11160.47;;;-3.47;36.60
13954;BME280;7049;49.444;8.522;2023-06-22T11:00:40;-11160.47;;;-3.47;36.22
13954;BME280;7049;49.444;8.522;2023-06-22T11:05:43;-11160.47;;;-3.47;37.08
13954;BME280;7049;49.444;8.522;2023-06-22T11:10:44;-11160.47;;;-3.47;36.19
13954;BME280;7049;49.444;8.522;2023-06-22T11:15:45;-11160.47;;;-3.47;35.54
13954;BME280;7049;49.444;8.522;2023-06-22T11:20:50;-11160.47;;;-3.47;34.83
13954;BME280;7049;49.444;8.522;2023-06-22T11:25:51;-11160.47;;;-3.47;35.60
13954;BME280;7049;49.444;8.522;2023-06-22T11:30:53;-11160.47;;;-3.47;35.85
13954;BME280;7049;49.444;8.522;2023-06-22T11:35:55;-11160.47;;;-3.47;37.20
13954;BME280;7049;49.444;8.522;2023-06-22T11:40:57;-11160.47;;;-3.47;36.34
13954;BME280;7049;49.444;8.522;2023-06-22T11:45:59;-11160.47;;;-3.47;35.66
13954;BME280;7049;49.444;8.522;2023-06-22T11:51:02;-11160.47;;;-3.47;35.86
13954;BME280;7049;49.444;8.522;2023-06-22T11:56:04;-11160.47;;;-3.47;34.51
13954;BME280;7049;49.444;8.522;2023-06-22T12:01:05;-11160.47;;;-3.47;35.10
13954;BME280;7049;49.444;8.522;2023-06-22T12:06:08;-11160.47;;;-3.47;35.01
13954;BME280;7049;49.444;8.522;2023-06-22T12:11:09;-11160.47;;;-3.47;35.30
13954;BME280;7049;49.444;8.522;2023-06-22T12:16:11;-11160.47;;;-3.47;35.27
13954;BME280;7049;49.444;8.522;2023-06-22T12:21:14;-11160.47;;;-3.47;35.08
13954;BME280;7049;49.444;8.522;2023-06-22T12:26:15;-11160.47;;;-3.47;35.04
13954;BME280;7049;49.444;8.522;2023-06-22T12:31:17;-11160.47;;;-3.47;35.19
13954;BME280;7049;49.444;8.522;2023-06-22T12:36:20;-11160.47;;;-3.47;35.41
13954;BME280;7049;49.444;8.522;2023-06-22T12:41:21;-11160.47;;;-3.47;35.08
13954;BME280;7049;49.444;8.522;2023-06-22T12:46:25;-11160.47;;;-3.47;35.06
13954;BME280;7049;49.444;8.522;2023-06-22T12:51:28;-11160.47;;;-3.47;34.39
13954;BME280;7049;49.444;8.522;2023-06-22T12:56:29;-11160.47;;;-3.47;34.71
13954;BME280;7049;49.444;8.522;2023-06-22T13:01:31;-11160.47;;;-3.47;34.57
13954;BME280;7049;49.444;8.522;2023-06-22T13:06:34;-11160.47;;;-3.47;34.80
13954;BME280;7049;49.444;8.522;2023-06-22T13:11:35;-11160.47;;;-3.47;35.76
13954;BME280;7049;49.444;8.522;2023-06-22T13:16:37;-11160.47;;;-3.47;35.27
13954;BME280;7049;49.444;8.522;2023-06-22T13:21:40;-11160.47;;;-3.47;35.41
13954;BME280;7049;49.444;8.522;2023-06-22T13:26:41;-11160.47;;;-3.47;34.18
13954;BME280;7049;49.444;8.522;2023-06-22T13:31:43;-11160.47;;;-3.47;34.50
13954;BME280;7049;49.444;8.522;2023-06-22T13:36:46;-11160.47;;;-3.47;33.56
13954;BME280;7049;49.444;8.522;2023-06-22T13:41:47;-11160.47;;;-3.47;33.99
13954;BME280;7049;49.444;8.522;2023-06-22T13:46:49;-11160.47;;;-3.47;33.80
13954;BME280;7049;49.444;8.522;2023-06-22T13:51:51;-11160.47;;;-3.47;34.71
13954;BME280;7049;49.444;8.522;2023-06-22T13:56:53;-11160.47;;;-3.47;34.25
13954;BME280;7049;49.444;8.522;2023-06-22T14:01:54;-11160.47;;;-3.47;34.19
13954;BME280;7049;49.444;8.522;2023-06-22T14:06:57;-11160.47;;;-3.47;34.46
13954;BME280;7049;49.444;8.522;2023-06-22T14:12:03;-11160.47;;;-3.47;35.24
13954;BME280;7049;49.444;8.522;2023-06-22T14:17:08;-11160.47;;;-3.47;35.78
13954;BME280;7049;49.444;8.522;2023-06-22T14:22:12;-11160.47;;;-3.47;36.17
13954;BME280;7049;49.444;8.522;2023-06-22T14:27:13;-11160.47;;;-3.47;36.81
13954;BME280;7049;49.444;8.522;2023-06-22T14:32:15;-11160.47;;;-3.47;37.61
13954;BME280;7049;49.444;8.522;2023-06-22T14:37:18;-11160.47;;;-3.47;38.01
13954;BME280;7049;49.444;8.522;2023-06-22T14:42:19;-11160.47;;;-3.47;39.21
13954;BME280;7049;49.444;8.522;2023-06-22T14:47:23;-11160.47;;;-3.47;39.87
13954;BME280;7049;49.444;8.522;2023-06-22T14:52:26;-11160.47;;;-3.47;40.53
13954;BME280;7049;49.444;8.522;2023-06-22T14:57:28;-11160.47;;;-3.47;41.12
13954;BME280;7049;49.444;8.522;2023-06-22T15:02:29;-11160.47;;;-3.47;41.54
13954;BME280;7049;49.444;8.522;2023-06-22T15:07:32;-11160.47;;;-3.47;41.82
13954;BME280;7049;49.444;8.522;2023-06-22T15:12:34;-11160.47;;;-3.47;42.63
13954;BME280;7049;49.444;8.522;2023-06-22T15:17:35;-11160.47;;;-3.47;43.15
13954;BME280;7049;49.444;8.522;2023-06-22T15:22:38;-11160.47;;;-3.47;43.36
13954;BME280;7049;49.444;8.522;2023-06-22T15:27:40;-11160.47;;;-3.47;42.27
13954;BME280;7049;49.444;8.522;2023-06-22T15:32:42;-11160.47;;;-3.47;43.09
13954;BME280;7049;49.444;8.522;2023-06-22T15:37:46;-11160.47;;;-3.47;41.27
13954;BME280;7049;49.444;8.522;2023-06-22T15:42:49;-11160.47;;;-3.47;40.39
13954;BME280;7049;49.444;8.522;2023-06-22T15:47:51;-11160.47;;;-3.47;40.89
13954;BME280;7049;49.444;8.522;2023-06-22T15:52:56;-11160.47;;;-3.47;42.06
13954;BME280;7049;49.444;8.522;2023-06-22T15:57:57;-11160.47;;;-3.47;42.88
13954;BME280;7049;49.444;8.522;2023-06-22T16:02:59;-11160.47;;;-3.47;40.90
13954;BME280;7049;49.444;8.522;2023-06-22T16:08:02;-11160.47;;;-3.47;39.66
13954;BME280;7049;49.444;8.522;2023-06-22T16:13:03;-11160.47;;;-3.47;39.27
13954;BME280;7049;49.444;8.522;2023-06-22T16:18:07;-11160.47;;;-3.47;39.20
13954;BME280;7049;49.444;8.522;2023-06-22T16:23:10;-11160.47;;;-3.47;40.54
13954;BME280;7049;49.444;8.522;2023-06-22T16:28:11;-11160.47;;;-3.47;41.77
13954;BME280;7049;49.444;8.522;2023-06-22T16:33:13;-11160.47;;;-3.47;41.98
13954;BME280;7049;49.444;8.522;2023-06-22T16:38:16;-11160.47;;;-3.47;42.66
13954;BME280;7049;49.444;8.522;2023-06-22T16:43:18;-11160.47;;;-3.47;42.66
13954;BME280;7049;49.444;8.522;2023-06-22T16:48:21;-11160.47;;;-3.47;42.93
13954;BME280;7049;49.444;8.522;2023-06-22T16:53:24;-11160.47;;;-3.47;43.42
13954;BME280;7049;49.444;8.522;2023-06-22T16:58:26;-11160.47;;;-3.47;43.75
13954;BME280;7049;49.444;8.522;2023-06-22T17:03:29;-11160.47;;;-3.47;43.46
13954;BME280;7049;49.444;8.522;2023-06-22T17:08:33;-11160.47;;;-3.47;43.10
13954;BME280;7049;49.444;8.522;2023-06-22T17:13:35;-11160.47;;;-3.47;42.59
13954;BME280;7049;49.444;8.522;2023-06-22T17:18:39;-11160.47;;;-3.47;42.79
13954;BME280;7049;49.444;8.522;2023-06-22T17:23:42;-11160.47;;;-3.47;42.87
13954;BME280;7049;49.444;8.522;2023-06-22T17:28:49;-11160.47;;;-3.47;42.84
13954;BME280;7049;49.444;8.522;2023-06-22T17:33:51;-11160.47;;;-3.47;42.69
13954;BME280;7049;49.444;8.522;2023-06-22T17:38:58;-11160.47;;;-3.47;42.61
13954;BME280;7049;49.444;8.522;2023-06-22T17:44:00;-11160.47;;;-3.47;42.95
13954;BME280;7049;49.444;8.522;2023-06-22T17:49:06;-11160.47;;;-3.47;42.40
13954;BME280;7049;49.444;8.522;2023-06-22T17:54:09;-11160.47;;;-3.47;43.33
13954;BME280;7049;49.444;8.522;2023-06-22T17:59:12;-11160.47;;;-3.47;43.11
13954;BME280;7049;49.444;8.522;2023-06-22T18:04:15;-11160.47;;;-3.47;40.71
13954;BME280;7049;49.444;8.522;2023-06-22T18:09:18;-11160.47;;;-3.47;38.92
13954;BME280;7049;49.444;8.522;2023-06-22T18:14:20;-11160.47;;;-3.47;37.66
13954;BME280;7049;49.444;8.522;2023-06-22T18:19:22;-11160.47;;;-3.47;37.00
13954;BME280;7049;49.444;8.522;2023-06-22T18:24:26;-11160.47;;;-3.47;36.86
13954;BME280;7049;49.444;8.522;2023-06-22T18:29:29;-11160.47;;;-3.47;37.28
13954;BME280;7049;49.444;8.522;2023-06-22T18:34:31;-11160.47;;;-3.47;36.21
13954;BME280;7049;49.444;8.522;2023-06-22T18:39:36;-11160.47;;;-3.47;36.48
13954;BME280;7049;49.444;8.522;2023-06-22T18:44:41;-11160.47;;;-3.47;36.63
13954;BME280;7049;49.444;8.522;2023-06-22T18:49:47;-11160.47;;;-3.47;36.77
13954;BME280;7049;49.444;8.522;2023-06-22T18:54:50;-11160.47;;;-3.47;37.05
13954;BME280;7049;49.444;8.522;2023-06-22T18:59:58;-11160.47;;;-3.47;37.76
13954;BME280;7049;49.444;8.522;2023-06-22T19:05:09;-11160.47;;;-3.47;38.58
13954;BME280;7049;49.444;8.522;2023-06-22T19:10:23;-11160.47;;;-3.47;39.17
13954;BME280;7049;49.444;8.522;2023-06-22T19:15:32;-11160.47;;;-3.47;40.00
13954;BME280;7049;49.444;8.522;2023-06-22T19:20:34;-11160.47;;;-3.47;41.07
13954;BME280;7049;49.444;8.522;2023-06-22T19:25:44;-11160.47;;;-3.47;41.75
13954;BME280;7049;49.444;8.522;2023-06-22T19:30:46;-11160.47;;;-3.47;42.99
13954;BME280;7049;49.444;8.522;2023-06-22T19:35:49;-11160.47;;;-3.47;43.50
13954;BME280;7049;49.444;8.522;2023-06-22T19:40:53;-11160.47;;;-3.47;44.79
13954;BME280;7049;49.444;8.522;2023-06-22T19:45:55;-11160.47;;;-3.47;44.00
13954;BME280;7049;49.444;8.522;2023-06-22T19:51:02;-11160.47;;;-3.47;44.33
13954;BME280;7049;49.444;8.522;2023-06-22T19:56:07;-11160.47;;;-3.47;44.96
13954;BME280;7049;49.444;8.522;2023-06-22T20:01:08;-11160.47;;;-3.47;45.19
13954;BME280;7049;49.444;8.522;2023-06-22T20:06:11;-11160.47;;;-3.47;44.39
13954;BME280;7049;49.444;8.522;2023-06-22T20:11:22;-11160.47;;;-3.47;43.42
13954;BME280;7049;49.444;8.522;2023-06-22T20:16:25;-11160.47;;;-3.47;43.44
13954;BME280;7049;49.444;8.522;2023-06-22T20:21:26;-11160.47;;;-3.47;44.67
13954;BME280;7049;49.444;8.522;2023-06-22T20:26:36;-11160.47;;;-3.47;47.21
13954;BME280;7049;49.444;8.522;2023-06-22T20:31:40;-11160.47;;;-3.47;47.48
13954;BME280;7049;49.444;8.522;2023-06-22T20:36:44;-11160.47;;;-3.47;48.19
13954;BME280;7049;49.444;8.522;2023-06-22T20:41:47;-11160.47;;;-3.47;49.31
13954;BME280;7049;49.444;8.522;2023-06-22T20:46:48;-11160.47;;;-3.47;50.86
13954;BME280;7049;49.444;8.522;2023-06-22T20:51:50;-11160.47;;;-3.47;51.91
13954;BME280;7049;49.444;8.522;2023-06-22T20:56:53;-11160.47;;;-3.47;52.83
13954;BME280;7049;49.444;8.522;2023-06-22T21:01:54;-11160.47;;;-3.47;53.88
13954;BME280;7049;49.444;8.522;2023-06-22T21:06:56;-11160.47;;;-3.47;51.78
13954;BME280;7049;49.444;8.522;2023-06-22T21:11:59;-11160.47;;;-3.47;52.73
13954;BME280;7049;49.444;8.522;2023-06-22T21:17:00;-11160.47;;;-3.47;53.38
13954;BME280;7049;49.444;8.522;2023-06-22T21:22:02;-11160.47;;;-3.47;54.03
13954;BME280;7049;49.444;8.522;2023-06-22T21:27:07;-11160.47;;;-3.47;54.03
13954;BME280;7049;49.444;8.522;2023-06-22T21:32:08;-11160.47;;;-3.47;53.99
13954;BME280;7049;49.444;8.522;2023-06-22T21:37:10;-11160.47;;;-3.47;54.39
13954;BME280;7049;49.444;8.522;2023-06-22T21:42:13;-11160.47;;;-3.47;55.09
13954;BME280;7049;49.444;8.522;2023-06-22T21:47:14;-11160.47;;;-3.47;54.76
13954;BME280;7049;49.444;8.522;2023-06-22T21:52:16;-11160.47;;;-3.47;54.71
13954;BME280;7049;49.444;8.522;2023-06-22T21:57:19;-11160.47;;;-3.47;55.75
13954;BME280;7049;49.444;8.522;2023-06-22T22:02:26;-11160.47;;;-3.47;55.12
13954;BME280;7049;49.444;8.522;2023-06-22T22:07:28;-11160.47;;;-3.47;55.95
13954;BME280;7049;49.444;8.522;2023-06-22T22:12:31;-11160.47;;;-3.47;56.28
13954;BME280;7049;49.444;8.522;2023-06-22T22:17:33;-11160.47;;;-3.47;56.31
13954;BME280;7049;49.444;8.522;2023-06-22T22:22:35;-11160.47;;;-3.47;56.46
13954;BME280;7049;49.444;8.522;2023-06-22T22:27:38;-11160.47;;;-3.47;58.58
13954;BME280;7049;49.444;8.522;2023-06-22T22:32:39;-11160.47;;;-3.47;59.00
13954;BME280;7049;49.444;8.522;2023-06-22T22:37:44;-11160.47;;;-3.47;62.11
13954;BME280;7049;49.444;8.522;2023-06-22T22:42:47;-11160.47;;;-3.47;62.28
13954;BME280;7049;49.444;8.522;2023-06-22T22:47:48;-11160.47;;;-3.47;62.81
13954;BME280;7049;49.444;8.522;2023-06-22T22:52:50;-11160.47;;;-3.47;61.42
13954;BME280;7049;49.444;8.522;2023-06-22T22:57:54;-11160.47;;;-3.47;62.26
13954;BME280;7049;49.444;8.522;2023-06-22T23:02:55;-11160.47;;;-3.47;62.49
13954;BME280;7049;49.444;8.522;2023-06-22T23:07:58;-11160.47;;;-3.47;60.72
13954;BME280;7049;49.444;8.522;2023-06-22T23:13:05;-11160.47;;;-3.47;60.20
13954;BME280;7049;49.444;8.522;2023-06-22T23:18:07;-11160.47;;;-3.47;59.71
13954;BME280;7049;49.444;8.522;2023-06-22T23:23:09;-11160.47;;;-3.47;58.89
13954;BME280;7049;49.444;8.522;2023-06-22T23:28:12;-11160.47;;;-3.47;59.43
13954;BME280;7049;49.444;8.522;2023-06-22T23:33:13;-11160.47;;;-3.47;57.71
13954;BME280;7049;49.444;8.522;2023-06-22T23:38:15;-11160.47;;;-3.47;57.27
13954;BME280;7049;49.444;8.522;2023-06-22T23:43:18;-11160.47;;;-3.47;57.30
13954;BME280;7049;49.444;8.522;2023-06-22T23:48:20;-11160.47;;;-3.47;58.03
13954;BME280;7049;49.444;8.522;2023-06-22T23:53:22;-11160.47;;;-3.47;58.92
13954;BME280;7049;49.444;8.522;2023-06-22T23:58:25;-11160.47;;;-3.47;59.33
